sensor_id;sensor_type;location;lat;lon;timestamp;temperature;humidity
71868;DHT22;59738;48.324;14.230;2022-07-09T00:01:44;14.00;81.10
71868;DHT22;59738;48.324;14.230;2022-07-09T00:04:12;14.00;82.50
71868;DHT22;59738;48.324;14.230;2022-07-09T00:06:41;14.00;82.70
71868;DHT22;59738;48.324;14.230;2022-07-09T00:09:09;14.00;81.10
71868;DHT22;59738;48.324;14.230;2022-07-09T00:11:37;13.90;79.90
71868;DHT22;59738;48.324;14.230;2022-07-09T00:14:05;13.90;80.50
71868;DHT22;59738;48.324;14.230;2022-07-09T00:16:32;13.90;81.80
71868;DHT22;59738;48.324;14.230;2022-07-09T00:19:00;14.00;82.60
71868;DHT22;59738;48.324;14.230;2022-07-09T00:21:28;14.00;80.60
71868;DHT22;59738;48.324;14.230;2022-07-09T00:23:57;13.90;82.00
71868;DHT22;59738;48.324;14.230;2022-07-09T00:26:25;13.90;80.20
71868;DHT22;59738;48.324;14.230;2022-07-09T00:28:53;13.90;82.40
71868;DHT22;59738;48.324;14.230;2022-07-09T00:31:21;13.90;80.10
71868;DHT22;59738;48.324;14.230;2022-07-09T00:33:48;13.80;80.90
71868;DHT22;59738;48.324;14.230;2022-07-09T00:36:16;13.80;79.80
71868;DHT22;59738;48.324;14.230;2022-07-09T00:38:44;13.80;79.70
71868;DHT22;59738;48.324;14.230;2022-07-09T00:41:13;13.80;80.60
71868;DHT22;59738;48.324;14.230;2022-07-09T00:43:46;13.80;80.70
71868;DHT22;59738;48.324;14.230;2022-07-09T00:46:14;13.70;79.30
71868;DHT22;59738;48.324;14.230;2022-07-09T00:48:42;13.70;81.50
71868;DHT22;59738;48.324;14.230;2022-07-09T00:51:11;13.60;81.10
71868;DHT22;59738;48.324;14.230;2022-07-09T00:53:40;13.60;84.50
71868;DHT22;59738;48.324;14.230;2022-07-09T00:56:08;13.60;89.40
71868;DHT22;59738;48.324;14.230;2022-07-09T00:58:38;13.60;90.40
71868;DHT22;59738;48.324;14.230;2022-07-09T01:01:06;13.60;87.40
71868;DHT22;59738;48.324;14.230;2022-07-09T01:03:34;13.60;87.50
71868;DHT22;59738;48.324;14.230;2022-07-09T01:06:02;13.60;86.00
71868;DHT22;59738;48.324;14.230;2022-07-09T01:08:29;13.60;88.30
71868;DHT22;59738;48.324;14.230;2022-07-09T01:10:57;13.60;87.40
71868;DHT22;59738;48.324;14.230;2022-07-09T01:13:26;13.60;88.20
71868;DHT22;59738;48.324;14.230;2022-07-09T01:15:55;13.60;89.20
71868;DHT22;59738;48.324;14.230;2022-07-09T01:18:22;13.50;89.30
71868;DHT22;59738;48.324;14.230;2022-07-09T01:20:52;13.50;90.50
71868;DHT22;59738;48.324;14.230;2022-07-09T01:23:19;13.50;89.20
71868;DHT22;59738;48.324;14.230;2022-07-09T01:25:48;13.50;90.10
71868;DHT22;59738;48.324;14.230;2022-07-09T01:28:16;13.50;88.80
71868;DHT22;59738;48.324;14.230;2022-07-09T01:30:43;13.60;87.50
71868;DHT22;59738;48.324;14.230;2022-07-09T01:33:11;13.60;86.30
71868;DHT22;59738;48.324;14.230;2022-07-09T01:35:39;13.60;87.40
71868;DHT22;59738;48.324;14.230;2022-07-09T01:38:08;13.60;88.60
71868;DHT22;59738;48.324;14.230;2022-07-09T01:40:36;13.60;88.60
71868;DHT22;59738;48.324;14.230;2022-07-09T01:43:04;13.60;88.60
71868;DHT22;59738;48.324;14.230;2022-07-09T01:45:32;13.60;88.60
71868;DHT22;59738;48.324;14.230;2022-07-09T01:47:59;13.60;88.20
71868;DHT22;59738;48.324;14.230;2022-07-09T01:50:27;13.60;89.50
71868;DHT22;59738;48.324;14.230;2022-07-09T01:52:55;13.60;89.00
71868;DHT22;59738;48.324;14.230;2022-07-09T01:55:24;13.60;90.50
71868;DHT22;59738;48.324;14.230;2022-07-09T01:57:51;13.60;90.20
71868;DHT22;59738;48.324;14.230;2022-07-09T02:00:19;13.60;90.10
71868;DHT22;59738;48.324;14.230;2022-07-09T02:02:47;13.60;89.70
71868;DHT22;59738;48.324;14.230;2022-07-09T02:05:15;13.60;88.00
71868;DHT22;59738;48.324;14.230;2022-07-09T02:07:42;13.70;87.20
71868;DHT22;59738;48.324;14.230;2022-07-09T02:10:10;13.80;87.90
71868;DHT22;59738;48.324;14.230;2022-07-09T02:12:40;13.80;84.70
71868;DHT22;59738;48.324;14.230;2022-07-09T02:15:08;13.80;84.30
71868;DHT22;59738;48.324;14.230;2022-07-09T02:17:37;13.90;82.10
71868;DHT22;59738;48.324;14.230;2022-07-09T02:20:06;13.90;81.10
71868;DHT22;59738;48.324;14.230;2022-07-09T02:22:35;13.90;80.00
71868;DHT22;59738;48.324;14.230;2022-07-09T02:25:03;13.90;79.70
71868;DHT22;59738;48.324;14.230;2022-07-09T02:27:31;13.90;78.60
71868;DHT22;59738;48.324;14.230;2022-07-09T02:30:00;13.90;78.30
71868;DHT22;59738;48.324;14.230;2022-07-09T02:32:27;13.90;77.90
71868;DHT22;59738;48.324;14.230;2022-07-09T02:34:55;13.90;76.10
71868;DHT22;59738;48.324;14.230;2022-07-09T02:37:23;13.90;78.30
71868;DHT22;59738;48.324;14.230;2022-07-09T02:39:50;13.90;76.90
71868;DHT22;59738;48.324;14.230;2022-07-09T02:42:18;13.90;76.80
71868;DHT22;59738;48.324;14.230;2022-07-09T02:44:46;13.90;76.10
71868;DHT22;59738;48.324;14.230;2022-07-09T02:47:15;13.90;75.50
71868;DHT22;59738;48.324;14.230;2022-07-09T02:49:43;13.90;76.40
71868;DHT22;59738;48.324;14.230;2022-07-09T02:52:11;13.90;78.40
71868;DHT22;59738;48.324;14.230;2022-07-09T02:54:39;13.80;80.60
71868;DHT22;59738;48.324;14.230;2022-07-09T02:57:07;13.80;77.00
71868;DHT22;59738;48.324;14.230;2022-07-09T02:59:35;13.80;78.40
71868;DHT22;59738;48.324;14.230;2022-07-09T03:02:03;13.90;75.90
71868;DHT22;59738;48.324;14.230;2022-07-09T03:04:32;13.90;75.00
71868;DHT22;59738;48.324;14.230;2022-07-09T03:07:00;14.00;75.10
71868;DHT22;59738;48.324;14.230;2022-07-09T03:09:27;14.00;75.00
71868;DHT22;59738;48.324;14.230;2022-07-09T03:11:55;14.00;73.80
71868;DHT22;59738;48.324;14.230;2022-07-09T03:14:23;14.00;74.60
71868;DHT22;59738;48.324;14.230;2022-07-09T03:16:50;14.10;75.50
71868;DHT22;59738;48.324;14.230;2022-07-09T03:19:18;14.00;78.10
71868;DHT22;59738;48.324;14.230;2022-07-09T03:21:47;14.10;75.60
71868;DHT22;59738;48.324;14.230;2022-07-09T03:24:15;14.10;74.60
71868;DHT22;59738;48.324;14.230;2022-07-09T03:26:43;14.10;75.20
71868;DHT22;59738;48.324;14.230;2022-07-09T03:29:10;14.20;75.50
71868;DHT22;59738;48.324;14.230;2022-07-09T03:31:39;14.20;76.60
71868;DHT22;59738;48.324;14.230;2022-07-09T03:34:06;14.10;77.30
71868;DHT22;59738;48.324;14.230;2022-07-09T03:36:34;14.20;77.10
71868;DHT22;59738;48.324;14.230;2022-07-09T03:39:04;14.10;78.20
71868;DHT22;59738;48.324;14.230;2022-07-09T03:41:32;14.10;76.50
71868;DHT22;59738;48.324;14.230;2022-07-09T03:44:00;14.20;76.40
71868;DHT22;59738;48.324;14.230;2022-07-09T03:46:28;14.10;76.10
71868;DHT22;59738;48.324;14.230;2022-07-09T03:48:55;14.20;76.60
71868;DHT22;59738;48.324;14.230;2022-07-09T03:51:23;14.10;76.90
71868;DHT22;59738;48.324;14.230;2022-07-09T03:53:53;14.10;76.60
71868;DHT22;59738;48.324;14.230;2022-07-09T03:56:22;14.10;76.00
71868;DHT22;59738;48.324;14.230;2022-07-09T03:58:55;14.10;76.40
71868;DHT22;59738;48.324;14.230;2022-07-09T04:01:22;14.10;76.50
71868;DHT22;59738;48.324;14.230;2022-07-09T04:03:52;14.20;76.40
71868;DHT22;59738;48.324;14.230;2022-07-09T04:06:21;14.20;77.10
71868;DHT22;59738;48.324;14.230;2022-07-09T04:08:53;14.20;76.80
71868;DHT22;59738;48.324;14.230;2022-07-09T04:11:28;14.20;75.30
71868;DHT22;59738;48.324;14.230;2022-07-09T04:13:58;14.30;78.00
71868;DHT22;59738;48.324;14.230;2022-07-09T04:16:28;14.30;78.40
71868;DHT22;59738;48.324;14.230;2022-07-09T04:18:56;14.30;77.70
71868;DHT22;59738;48.324;14.230;2022-07-09T04:21:24;14.30;77.10
71868;DHT22;59738;48.324;14.230;2022-07-09T04:23:52;14.30;76.70
71868;DHT22;59738;48.324;14.230;2022-07-09T04:26:20;14.40;77.20
71868;DHT22;59738;48.324;14.230;2022-07-09T04:28:49;14.40;78.80
71868;DHT22;59738;48.324;14.230;2022-07-09T04:31:23;14.30;77.10
71868;DHT22;59738;48.324;14.230;2022-07-09T04:33:51;14.40;77.80
71868;DHT22;59738;48.324;14.230;2022-07-09T04:36:20;14.40;78.10
71868;DHT22;59738;48.324;14.230;2022-07-09T04:38:48;14.40;78.20
71868;DHT22;59738;48.324;14.230;2022-07-09T04:41:19;14.40;78.10
71868;DHT22;59738;48.324;14.230;2022-07-09T04:43:54;14.40;79.70
71868;DHT22;59738;48.324;14.230;2022-07-09T04:46:24;14.50;81.20
71868;DHT22;59738;48.324;14.230;2022-07-09T04:48:54;14.50;81.30
71868;DHT22;59738;48.324;14.230;2022-07-09T04:51:25;14.40;81.00
71868;DHT22;59738;48.324;14.230;2022-07-09T04:53:53;14.40;80.90
71868;DHT22;59738;48.324;14.230;2022-07-09T04:56:26;14.50;83.00
71868;DHT22;59738;48.324;14.230;2022-07-09T04:59:01;14.50;80.00
71868;DHT22;59738;48.324;14.230;2022-07-09T05:01:29;14.50;80.10
71868;DHT22;59738;48.324;14.230;2022-07-09T05:04:03;14.60;80.40
71868;DHT22;59738;48.324;14.230;2022-07-09T05:06:31;14.60;80.20
71868;DHT22;59738;48.324;14.230;2022-07-09T05:08:58;14.60;80.00
71868;DHT22;59738;48.324;14.230;2022-07-09T05:11:31;14.70;77.10
71868;DHT22;59738;48.324;14.230;2022-07-09T05:14:09;14.80;78.00
71868;DHT22;59738;48.324;14.230;2022-07-09T05:16:37;14.80;75.20
71868;DHT22;59738;48.324;14.230;2022-07-09T05:19:12;14.80;76.80
71868;DHT22;59738;48.324;14.230;2022-07-09T05:21:41;14.90;76.50
71868;DHT22;59738;48.324;14.230;2022-07-09T05:24:10;14.90;77.80
71868;DHT22;59738;48.324;14.230;2022-07-09T05:26:38;14.90;78.00
71868;DHT22;59738;48.324;14.230;2022-07-09T05:29:09;14.90;76.50
71868;DHT22;59738;48.324;14.230;2022-07-09T05:31:37;15.00;78.20
71868;DHT22;59738;48.324;14.230;2022-07-09T05:34:05;14.90;78.30
71868;DHT22;59738;48.324;14.230;2022-07-09T05:36:35;15.00;78.70
71868;DHT22;59738;48.324;14.230;2022-07-09T05:39:04;15.10;77.30
71868;DHT22;59738;48.324;14.230;2022-07-09T05:41:33;15.10;79.00
71868;DHT22;59738;48.324;14.230;2022-07-09T05:44:01;15.20;78.70
71868;DHT22;59738;48.324;14.230;2022-07-09T05:46:31;15.20;76.50
71868;DHT22;59738;48.324;14.230;2022-07-09T05:48:59;15.30;76.80
71868;DHT22;59738;48.324;14.230;2022-07-09T05:51:26;15.40;75.40
71868;DHT22;59738;48.324;14.230;2022-07-09T05:53:54;15.50;76.90
71868;DHT22;59738;48.324;14.230;2022-07-09T05:56:22;15.60;76.70
71868;DHT22;59738;48.324;14.230;2022-07-09T05:58:49;15.60;74.80
71868;DHT22;59738;48.324;14.230;2022-07-09T06:01:17;15.60;75.00
71868;DHT22;59738;48.324;14.230;2022-07-09T06:03:47;15.80;74.80
71868;DHT22;59738;48.324;14.230;2022-07-09T06:06:15;15.80;74.00
71868;DHT22;59738;48.324;14.230;2022-07-09T06:08:43;15.80;70.90
71868;DHT22;59738;48.324;14.230;2022-07-09T06:11:11;15.70;71.60
71868;DHT22;59738;48.324;14.230;2022-07-09T06:13:38;15.90;70.60
71868;DHT22;59738;48.324;14.230;2022-07-09T06:16:07;16.00;71.60
71868;DHT22;59738;48.324;14.230;2022-07-09T06:18:35;16.20;70.60
71868;DHT22;59738;48.324;14.230;2022-07-09T06:21:04;16.60;67.30
71868;DHT22;59738;48.324;14.230;2022-07-09T06:23:32;17.00;66.10
71868;DHT22;59738;48.324;14.230;2022-07-09T06:25:59;17.40;65.50
71868;DHT22;59738;48.324;14.230;2022-07-09T06:28:27;17.60;59.90
71868;DHT22;59738;48.324;14.230;2022-07-09T06:30:55;17.80;62.90
71868;DHT22;59738;48.324;14.230;2022-07-09T06:33:22;18.00;59.70
71868;DHT22;59738;48.324;14.230;2022-07-09T06:35:51;18.20;60.00
71868;DHT22;59738;48.324;14.230;2022-07-09T06:38:20;18.60;58.50
71868;DHT22;59738;48.324;14.230;2022-07-09T06:40:48;18.80;57.60
71868;DHT22;59738;48.324;14.230;2022-07-09T06:43:17;19.20;57.80
71868;DHT22;59738;48.324;14.230;2022-07-09T06:45:53;19.40;53.70
71868;DHT22;59738;48.324;14.230;2022-07-09T06:48:21;19.90;54.90
71868;DHT22;59738;48.324;14.230;2022-07-09T06:50:49;19.70;54.60
71868;DHT22;59738;48.324;14.230;2022-07-09T06:53:16;19.70;55.50
71868;DHT22;59738;48.324;14.230;2022-07-09T06:55:57;19.70;55.90
71868;DHT22;59738;48.324;14.230;2022-07-09T06:58:25;20.30;55.10
71868;DHT22;59738;48.324;14.230;2022-07-09T07:00:52;21.00;54.30
71868;DHT22;59738;48.324;14.230;2022-07-09T07:03:20;21.20;50.80
71868;DHT22;59738;48.324;14.230;2022-07-09T07:05:48;19.80;53.80
71868;DHT22;59738;48.324;14.230;2022-07-09T07:08:15;19.50;56.90
71868;DHT22;59738;48.324;14.230;2022-07-09T07:10:44;19.30;56.50
71868;DHT22;59738;48.324;14.230;2022-07-09T07:13:13;19.30;56.70
71868;DHT22;59738;48.324;14.230;2022-07-09T07:15:42;19.30;56.20
71868;DHT22;59738;48.324;14.230;2022-07-09T07:18:10;19.00;57.10
71868;DHT22;59738;48.324;14.230;2022-07-09T07:20:41;18.90;57.20
71868;DHT22;59738;48.324;14.230;2022-07-09T07:23:09;19.10;56.20
71868;DHT22;59738;48.324;14.230;2022-07-09T07:25:37;19.00;56.10
71868;DHT22;59738;48.324;14.230;2022-07-09T07:28:05;19.20;57.40
71868;DHT22;59738;48.324;14.230;2022-07-09T07:30:34;19.50;55.00
71868;DHT22;59738;48.324;14.230;2022-07-09T07:33:07;19.20;55.40
71868;DHT22;59738;48.324;14.230;2022-07-09T07:35:35;19.30;56.60
71868;DHT22;59738;48.324;14.230;2022-07-09T07:38:03;19.90;54.10
71868;DHT22;59738;48.324;14.230;2022-07-09T07:40:30;20.20;53.70
71868;DHT22;59738;48.324;14.230;2022-07-09T07:42:58;20.50;52.50
71868;DHT22;59738;48.324;14.230;2022-07-09T07:45:26;20.10;50.80
71868;DHT22;59738;48.324;14.230;2022-07-09T07:47:56;19.80;51.10
71868;DHT22;59738;48.324;14.230;2022-07-09T07:50:26;19.60;52.00
71868;DHT22;59738;48.324;14.230;2022-07-09T07:52:55;19.60;52.10
71868;DHT22;59738;48.324;14.230;2022-07-09T07:55:23;19.50;51.20
71868;DHT22;59738;48.324;14.230;2022-07-09T07:57:52;19.60;50.60
71868;DHT22;59738;48.324;14.230;2022-07-09T08:00:24;19.70;51.90
71868;DHT22;59738;48.324;14.230;2022-07-09T08:02:52;19.70;51.30
71868;DHT22;59738;48.324;14.230;2022-07-09T08:05:22;19.70;52.00
71868;DHT22;59738;48.324;14.230;2022-07-09T08:07:51;20.20;48.10
71868;DHT22;59738;48.324;14.230;2022-07-09T08:10:19;20.20;48.40
71868;DHT22;59738;48.324;14.230;2022-07-09T08:12:47;20.00;49.00
71868;DHT22;59738;48.324;14.230;2022-07-09T08:15:15;20.20;47.80
71868;DHT22;59738;48.324;14.230;2022-07-09T08:17:45;20.10;47.90
71868;DHT22;59738;48.324;14.230;2022-07-09T08:20:13;20.50;48.50
71868;DHT22;59738;48.324;14.230;2022-07-09T08:22:46;20.50;47.70
71868;DHT22;59738;48.324;14.230;2022-07-09T08:25:15;20.80;47.50
71868;DHT22;59738;48.324;14.230;2022-07-09T08:27:42;20.60;48.00
71868;DHT22;59738;48.324;14.230;2022-07-09T08:30:10;20.80;46.90
71868;DHT22;59738;48.324;14.230;2022-07-09T08:32:38;20.40;48.40
71868;DHT22;59738;48.324;14.230;2022-07-09T08:35:07;20.40;47.50
71868;DHT22;59738;48.324;14.230;2022-07-09T08:37:34;20.50;48.90
71868;DHT22;59738;48.324;14.230;2022-07-09T08:40:08;20.70;47.80
71868;DHT22;59738;48.324;14.230;2022-07-09T08:42:36;20.50;48.20
71868;DHT22;59738;48.324;14.230;2022-07-09T08:45:08;20.70;47.90
71868;DHT22;59738;48.324;14.230;2022-07-09T08:47:43;20.70;48.40
71868;DHT22;59738;48.324;14.230;2022-07-09T08:50:12;20.50;48.80
71868;DHT22;59738;48.324;14.230;2022-07-09T08:52:41;20.50;49.50
71868;DHT22;59738;48.324;14.230;2022-07-09T08:55:10;20.70;46.50
71868;DHT22;59738;48.324;14.230;2022-07-09T08:57:40;20.80;49.70
71868;DHT22;59738;48.324;14.230;2022-07-09T09:00:08;20.40;47.00
71868;DHT22;59738;48.324;14.230;2022-07-09T09:02:38;20.50;49.80
71868;DHT22;59738;48.324;14.230;2022-07-09T09:05:08;20.90;46.60
71868;DHT22;59738;48.324;14.230;2022-07-09T09:07:36;21.00;47.50
71868;DHT22;59738;48.324;14.230;2022-07-09T09:10:05;20.80;46.90
71868;DHT22;59738;48.324;14.230;2022-07-09T09:12:36;20.90;49.40
71868;DHT22;59738;48.324;14.230;2022-07-09T09:15:08;21.00;47.70
71868;DHT22;59738;48.324;14.230;2022-07-09T09:17:42;20.80;47.90
71868;DHT22;59738;48.324;14.230;2022-07-09T09:20:11;20.70;48.80
71868;DHT22;59738;48.324;14.230;2022-07-09T09:22:45;20.50;49.90
71868;DHT22;59738;48.324;14.230;2022-07-09T09:25:17;20.60;48.20
71868;DHT22;59738;48.324;14.230;2022-07-09T09:27:53;20.40;49.40
71868;DHT22;59738;48.324;14.230;2022-07-09T09:30:22;21.00;49.30
71868;DHT22;59738;48.324;14.230;2022-07-09T09:32:56;21.50;49.50
71868;DHT22;59738;48.324;14.230;2022-07-09T09:35:25;22.20;47.20
71868;DHT22;59738;48.324;14.230;2022-07-09T09:37:54;22.70;42.40
71868;DHT22;59738;48.324;14.230;2022-07-09T09:40:25;22.70;41.80
71868;DHT22;59738;48.324;14.230;2022-07-09T09:43:01;22.80;42.80
71868;DHT22;59738;48.324;14.230;2022-07-09T09:45:31;22.70;41.00
71868;DHT22;59738;48.324;14.230;2022-07-09T09:48:02;23.10;43.40
71868;DHT22;59738;48.324;14.230;2022-07-09T09:50:32;23.00;42.10
71868;DHT22;59738;48.324;14.230;2022-07-09T09:53:03;22.90;42.60
71868;DHT22;59738;48.324;14.230;2022-07-09T09:55:34;23.20;41.00
71868;DHT22;59738;48.324;14.230;2022-07-09T09:58:09;23.30;44.20
71868;DHT22;59738;48.324;14.230;2022-07-09T10:00:38;23.00;39.30
71868;DHT22;59738;48.324;14.230;2022-07-09T10:03:06;23.10;42.70
71868;DHT22;59738;48.324;14.230;2022-07-09T10:05:34;23.40;43.30
71868;DHT22;59738;48.324;14.230;2022-07-09T10:08:03;23.60;40.00
71868;DHT22;59738;48.324;14.230;2022-07-09T10:10:30;23.90;38.90
71868;DHT22;59738;48.324;14.230;2022-07-09T10:12:58;23.60;39.20
71868;DHT22;59738;48.324;14.230;2022-07-09T10:15:27;23.00;38.10
71868;DHT22;59738;48.324;14.230;2022-07-09T10:17:55;22.80;39.10
71868;DHT22;59738;48.324;14.230;2022-07-09T10:20:29;22.50;39.60
71868;DHT22;59738;48.324;14.230;2022-07-09T10:23:00;22.00;40.70
71868;DHT22;59738;48.324;14.230;2022-07-09T10:25:29;21.80;42.40
71868;DHT22;59738;48.324;14.230;2022-07-09T10:27:57;21.90;42.80
71868;DHT22;59738;48.324;14.230;2022-07-09T10:30:27;22.20;42.60
71868;DHT22;59738;48.324;14.230;2022-07-09T10:33:04;22.90;41.30
71868;DHT22;59738;48.324;14.230;2022-07-09T10:35:39;23.50;41.00
71868;DHT22;59738;48.324;14.230;2022-07-09T10:38:07;23.60;39.30
71868;DHT22;59738;48.324;14.230;2022-07-09T10:40:40;24.70;36.60
71868;DHT22;59738;48.324;14.230;2022-07-09T10:43:08;24.70;37.30
71868;DHT22;59738;48.324;14.230;2022-07-09T10:45:39;24.80;35.20
71868;DHT22;59738;48.324;14.230;2022-07-09T10:48:08;24.90;37.50
71868;DHT22;59738;48.324;14.230;2022-07-09T10:50:38;24.60;34.00
71868;DHT22;59738;48.324;14.230;2022-07-09T10:53:07;24.60;33.00
71868;DHT22;59738;48.324;14.230;2022-07-09T10:55:36;24.80;35.90
71868;DHT22;59738;48.324;14.230;2022-07-09T10:58:16;24.40;34.30
71868;DHT22;59738;48.324;14.230;2022-07-09T11:00:54;24.50;35.10
71868;DHT22;59738;48.324;14.230;2022-07-09T11:03:25;24.80;35.60
71868;DHT22;59738;48.324;14.230;2022-07-09T11:05:53;24.60;35.10
71868;DHT22;59738;48.324;14.230;2022-07-09T11:08:21;24.70;33.20
71868;DHT22;59738;48.324;14.230;2022-07-09T11:10:49;24.60;33.20
71868;DHT22;59738;48.324;14.230;2022-07-09T11:13:17;24.90;33.40
71868;DHT22;59738;48.324;14.230;2022-07-09T11:15:46;24.70;33.90
71868;DHT22;59738;48.324;14.230;2022-07-09T11:18:14;24.60;34.10
71868;DHT22;59738;48.324;14.230;2022-07-09T11:20:44;24.60;35.30
71868;DHT22;59738;48.324;14.230;2022-07-09T11:23:13;24.70;34.30
71868;DHT22;59738;48.324;14.230;2022-07-09T11:25:42;24.80;34.30
71868;DHT22;59738;48.324;14.230;2022-07-09T11:28:18;24.80;35.60
71868;DHT22;59738;48.324;14.230;2022-07-09T11:30:57;24.70;32.60
71868;DHT22;59738;48.324;14.230;2022-07-09T11:33:26;24.00;34.90
71868;DHT22;59738;48.324;14.230;2022-07-09T11:35:54;24.00;34.20
71868;DHT22;59738;48.324;14.230;2022-07-09T11:38:21;24.30;34.90
71868;DHT22;59738;48.324;14.230;2022-07-09T11:40:59;24.70;33.80
71868;DHT22;59738;48.324;14.230;2022-07-09T11:43:27;23.70;33.30
71868;DHT22;59738;48.324;14.230;2022-07-09T11:45:56;23.50;35.60
71868;DHT22;59738;48.324;14.230;2022-07-09T11:48:24;23.40;36.60
71868;DHT22;59738;48.324;14.230;2022-07-09T11:50:52;23.50;35.30
71868;DHT22;59738;48.324;14.230;2022-07-09T11:53:20;23.40;35.10
71868;DHT22;59738;48.324;14.230;2022-07-09T11:56:01;23.50;37.70
71868;DHT22;59738;48.324;14.230;2022-07-09T11:58:31;23.60;34.40
71868;DHT22;59738;48.324;14.230;2022-07-09T12:01:10;23.50;36.10
71868;DHT22;59738;48.324;14.230;2022-07-09T12:03:46;23.30;36.80
71868;DHT22;59738;48.324;14.230;2022-07-09T12:06:14;23.40;38.50
71868;DHT22;59738;48.324;14.230;2022-07-09T12:08:44;23.40;37.40
71868;DHT22;59738;48.324;14.230;2022-07-09T12:11:12;23.40;37.40
71868;DHT22;59738;48.324;14.230;2022-07-09T12:13:41;23.60;37.10
71868;DHT22;59738;48.324;14.230;2022-07-09T12:16:11;23.90;36.80
71868;DHT22;59738;48.324;14.230;2022-07-09T12:18:41;23.90;35.10
71868;DHT22;59738;48.324;14.230;2022-07-09T12:21:18;23.50;34.50
71868;DHT22;59738;48.324;14.230;2022-07-09T12:23:48;23.90;34.40
71868;DHT22;59738;48.324;14.230;2022-07-09T12:26:17;24.30;34.40
71868;DHT22;59738;48.324;14.230;2022-07-09T12:28:45;24.60;33.20
71868;DHT22;59738;48.324;14.230;2022-07-09T12:31:14;25.10;32.80
71868;DHT22;59738;48.324;14.230;2022-07-09T12:33:43;25.30;33.30
71868;DHT22;59738;48.324;14.230;2022-07-09T12:36:11;25.30;30.70
71868;DHT22;59738;48.324;14.230;2022-07-09T12:38:41;25.00;32.10
71868;DHT22;59738;48.324;14.230;2022-07-09T12:41:08;25.10;30.80
71868;DHT22;59738;48.324;14.230;2022-07-09T12:43:37;25.10;33.40
71868;DHT22;59738;48.324;14.230;2022-07-09T12:46:05;25.40;32.20
71868;DHT22;59738;48.324;14.230;2022-07-09T12:48:37;25.40;32.00
71868;DHT22;59738;48.324;14.230;2022-07-09T12:51:05;25.60;31.00
71868;DHT22;59738;48.324;14.230;2022-07-09T12:53:33;25.00;32.30
71868;DHT22;59738;48.324;14.230;2022-07-09T12:56:03;24.80;31.70
71868;DHT22;59738;48.324;14.230;2022-07-09T12:58:32;24.90;32.30
71868;DHT22;59738;48.324;14.230;2022-07-09T13:01:00;24.90;31.80
71868;DHT22;59738;48.324;14.230;2022-07-09T13:03:27;24.70;31.00
71868;DHT22;59738;48.324;14.230;2022-07-09T13:05:57;24.70;30.40
71868;DHT22;59738;48.324;14.230;2022-07-09T13:08:25;25.20;33.60
71868;DHT22;59738;48.324;14.230;2022-07-09T13:10:55;25.10;31.40
71868;DHT22;59738;48.324;14.230;2022-07-09T13:13:23;24.90;32.50
71868;DHT22;59738;48.324;14.230;2022-07-09T13:15:50;24.60;31.70
71868;DHT22;59738;48.324;14.230;2022-07-09T13:18:19;24.30;33.70
71868;DHT22;59738;48.324;14.230;2022-07-09T13:20:47;24.00;35.40
71868;DHT22;59738;48.324;14.230;2022-07-09T13:23:16;24.30;34.10
71868;DHT22;59738;48.324;14.230;2022-07-09T13:25:44;24.60;32.80
71868;DHT22;59738;48.324;14.230;2022-07-09T13:28:12;24.40;32.00
71868;DHT22;59738;48.324;14.230;2022-07-09T13:30:40;24.30;34.30
71868;DHT22;59738;48.324;14.230;2022-07-09T13:33:08;24.40;34.40
71868;DHT22;59738;48.324;14.230;2022-07-09T13:35:35;24.70;31.60
71868;DHT22;59738;48.324;14.230;2022-07-09T13:38:03;24.20;30.10
71868;DHT22;59738;48.324;14.230;2022-07-09T13:40:32;24.40;32.10
71868;DHT22;59738;48.324;14.230;2022-07-09T13:43:00;24.50;31.30
71868;DHT22;59738;48.324;14.230;2022-07-09T13:45:28;24.40;31.20
71868;DHT22;59738;48.324;14.230;2022-07-09T13:47:56;24.10;32.10
71868;DHT22;59738;48.324;14.230;2022-07-09T13:50:24;23.60;33.00
71868;DHT22;59738;48.324;14.230;2022-07-09T13:52:52;23.50;33.60
71868;DHT22;59738;48.324;14.230;2022-07-09T13:55:20;23.30;33.20
71868;DHT22;59738;48.324;14.230;2022-07-09T13:57:49;23.30;33.70
71868;DHT22;59738;48.324;14.230;2022-07-09T14:00:16;23.20;33.50
71868;DHT22;59738;48.324;14.230;2022-07-09T14:02:44;23.10;35.10
71868;DHT22;59738;48.324;14.230;2022-07-09T14:05:12;23.10;36.80
71868;DHT22;59738;48.324;14.230;2022-07-09T14:07:40;23.10;36.90
71868;DHT22;59738;48.324;14.230;2022-07-09T14:10:08;23.30;37.10
71868;DHT22;59738;48.324;14.230;2022-07-09T14:12:36;23.20;37.20
71868;DHT22;59738;48.324;14.230;2022-07-09T14:15:09;23.10;37.40
71868;DHT22;59738;48.324;14.230;2022-07-09T14:17:37;23.00;37.30
71868;DHT22;59738;48.324;14.230;2022-07-09T14:20:07;23.10;37.00
71868;DHT22;59738;48.324;14.230;2022-07-09T14:22:35;23.10;34.80
71868;DHT22;59738;48.324;14.230;2022-07-09T14:25:03;23.20;35.30
71868;DHT22;59738;48.324;14.230;2022-07-09T14:27:31;23.10;34.20
71868;DHT22;59738;48.324;14.230;2022-07-09T14:29:59;23.40;34.70
71868;DHT22;59738;48.324;14.230;2022-07-09T14:32:28;23.60;36.00
71868;DHT22;59738;48.324;14.230;2022-07-09T14:34:57;23.40;35.10
71868;DHT22;59738;48.324;14.230;2022-07-09T14:37:26;23.50;34.80
71868;DHT22;59738;48.324;14.230;2022-07-09T14:39:56;23.50;34.00
71868;DHT22;59738;48.324;14.230;2022-07-09T14:42:24;23.20;33.50
71868;DHT22;59738;48.324;14.230;2022-07-09T14:44:53;23.30;33.20
71868;DHT22;59738;48.324;14.230;2022-07-09T14:47:20;23.20;33.80
71868;DHT22;59738;48.324;14.230;2022-07-09T14:49:50;23.30;35.00
71868;DHT22;59738;48.324;14.230;2022-07-09T14:52:21;23.30;36.10
71868;DHT22;59738;48.324;14.230;2022-07-09T14:54:49;23.10;36.80
71868;DHT22;59738;48.324;14.230;2022-07-09T14:57:18;22.90;36.30
71868;DHT22;59738;48.324;14.230;2022-07-09T14:59:46;22.90;36.80
71868;DHT22;59738;48.324;14.230;2022-07-09T15:02:14;22.80;36.10
71868;DHT22;59738;48.324;14.230;2022-07-09T15:04:42;22.80;37.80
71868;DHT22;59738;48.324;14.230;2022-07-09T15:07:42;22.60;38.10
71868;DHT22;59738;48.324;14.230;2022-07-09T15:10:16;22.50;36.10
71868;DHT22;59738;48.324;14.230;2022-07-09T15:12:48;22.40;37.60
71868;DHT22;59738;48.324;14.230;2022-07-09T15:15:17;22.50;37.20
71868;DHT22;59738;48.324;14.230;2022-07-09T15:17:54;22.60;38.10
71868;DHT22;59738;48.324;14.230;2022-07-09T15:20:56;22.80;39.00
71868;DHT22;59738;48.324;14.230;2022-07-09T15:23:25;22.80;38.20
71868;DHT22;59738;48.324;14.230;2022-07-09T15:25:53;22.70;39.60
71868;DHT22;59738;48.324;14.230;2022-07-09T15:28:22;22.70;38.30